sensor_id;sensor_type;location;lat;lon;timestamp;P1;durP1;ratioP1;P2;durP2;ratioP2
74523;SDS011;63074;44.696;10.358;2022-11-09T00:01:19;33.78;;;22.77;;
74523;SDS011;63074;44.696;10.358;2022-11-09T00:03:44;32.95;;;21.92;;
74523;SDS011;63074;44.696;10.358;2022-11-09T00:06:10;35.03;;;22.50;;
74523;SDS011;63074;44.696;10.358;2022-11-09T00:08:36;37.38;;;22.95;;
74523;SDS011;63074;44.696;10.358;2022-11-09T00:11:03;37.95;;;24.00;;
74523;SDS011;63074;44.696;10.358;2022-11-09T00:13:30;36.40;;;22.75;;
74523;SDS011;63074;44.696;10.358;2022-11-09T00:16:00;38.05;;;22.42;;
74523;SDS011;63074;44.696;10.358;2022-11-09T00:18:26;32.83;;;21.70;;
74523;SDS011;63074;44.696;10.358;2022-11-09T00:20:55;35.50;;;22.08;;
74523;SDS011;63074;44.696;10.358;2022-11-09T00:23:20;38.22;;;24.15;;
74523;SDS011;63074;44.696;10.358;2022-11-09T00:25:46;33.35;;;22.25;;
74523;SDS011;63074;44.696;10.358;2022-11-09T00:28:11;36.53;;;23.25;;
74523;SDS011;63074;44.696;10.358;2022-11-09T00:30:37;36.70;;;21.98;;
74523;SDS011;63074;44.696;10.358;2022-11-09T00:33:03;35.78;;;22.50;;
74523;SDS011;63074;44.696;10.358;2022-11-09T00:35:29;34.13;;;23.30;;
74523;SDS011;63074;44.696;10.358;2022-11-09T00:37:54;33.80;;;22.15;;
74523;SDS011;63074;44.696;10.358;2022-11-09T00:40:20;37.25;;;22.45;;
74523;SDS011;63074;44.696;10.358;2022-11-09T00:42:45;35.47;;;20.98;;
74523;SDS011;63074;44.696;10.358;2022-11-09T00:45:10;34.10;;;20.92;;
74523;SDS011;63074;44.696;10.358;2022-11-09T00:47:36;37.67;;;22.17;;
74523;SDS011;63074;44.696;10.358;2022-11-09T00:50:01;33.85;;;21.85;;
74523;SDS011;63074;44.696;10.358;2022-11-09T00:55:52;34.28;;;21.10;;
74523;SDS011;63074;44.696;10.358;2022-11-09T00:58:21;32.97;;;21.73;;
74523;SDS011;63074;44.696;10.358;2022-11-09T01:00:47;36.38;;;23.35;;
74523;SDS011;63074;44.696;10.358;2022-11-09T01:06:17;36.78;;;23.38;;
74523;SDS011;63074;44.696;10.358;2022-11-09T01:08:44;37.20;;;23.38;;
74523;SDS011;63074;44.696;10.358;2022-11-09T01:11:10;34.35;;;22.42;;
74523;SDS011;63074;44.696;10.358;2022-11-09T01:13:37;36.13;;;24.23;;
74523;SDS011;63074;44.696;10.358;2022-11-09T01:16:06;38.10;;;24.23;;
74523;SDS011;63074;44.696;10.358;2022-11-09T01:18:37;38.15;;;22.50;;
74523;SDS011;63074;44.696;10.358;2022-11-09T01:21:03;39.70;;;24.85;;
74523;SDS011;63074;44.696;10.358;2022-11-09T01:23:31;37.55;;;23.08;;
74523;SDS011;63074;44.696;10.358;2022-11-09T01:26:00;35.33;;;22.77;;
74523;SDS011;63074;44.696;10.358;2022-11-09T01:28:29;36.55;;;23.55;;
74523;SDS011;63074;44.696;10.358;2022-11-09T01:30:54;35.83;;;23.38;;
74523;SDS011;63074;44.696;10.358;2022-11-09T01:33:24;36.53;;;23.40;;
74523;SDS011;63074;44.696;10.358;2022-11-09T01:35:49;38.63;;;23.73;;
74523;SDS011;63074;44.696;10.358;2022-11-09T01:38:15;37.50;;;23.50;;
74523;SDS011;63074;44.696;10.358;2022-11-09T01:40:40;36.75;;;23.38;;
74523;SDS011;63074;44.696;10.358;2022-11-09T01:43:16;39.85;;;25.10;;
74523;SDS011;63074;44.696;10.358;2022-11-09T01:45:47;37.83;;;24.67;;
74523;SDS011;63074;44.696;10.358;2022-11-09T01:48:21;34.85;;;23.10;;
74523;SDS011;63074;44.696;10.358;2022-11-09T01:51:23;38.38;;;25.13;;
74523;SDS011;63074;44.696;10.358;2022-11-09T01:54:12;39.83;;;24.92;;
74523;SDS011;63074;44.696;10.358;2022-11-09T01:56:44;38.10;;;24.85;;
74523;SDS011;63074;44.696;10.358;2022-11-09T01:59:12;37.50;;;24.92;;
74523;SDS011;63074;44.696;10.358;2022-11-09T02:01:41;42.95;;;26.42;;
74523;SDS011;63074;44.696;10.358;2022-11-09T02:04:11;40.80;;;25.50;;
74523;SDS011;63074;44.696;10.358;2022-11-09T02:06:42;43.08;;;26.88;;
74523;SDS011;63074;44.696;10.358;2022-11-09T02:09:12;41.88;;;25.77;;
74523;SDS011;63074;44.696;10.358;2022-11-09T02:11:51;41.15;;;25.13;;
74523;SDS011;63074;44.696;10.358;2022-11-09T02:14:17;54.78;;;33.28;;
74523;SDS011;63074;44.696;10.358;2022-11-09T02:16:46;58.30;;;31.88;;
74523;SDS011;63074;44.696;10.358;2022-11-09T02:19:12;54.47;;;32.10;;
74523;SDS011;63074;44.696;10.358;2022-11-09T02:21:37;58.05;;;31.55;;
74523;SDS011;63074;44.696;10.358;2022-11-09T02:24:03;57.10;;;32.75;;
74523;SDS011;63074;44.696;10.358;2022-11-09T02:26:30;55.05;;;33.35;;
74523;SDS011;63074;44.696;10.358;2022-11-09T02:28:57;59.70;;;32.83;;
74523;SDS011;63074;44.696;10.358;2022-11-09T02:31:27;58.90;;;34.13;;
74523;SDS011;63074;44.696;10.358;2022-11-09T02:36:52;58.60;;;33.28;;
74523;SDS011;63074;44.696;10.358;2022-11-09T02:39:21;59.90;;;33.90;;
74523;SDS011;63074;44.696;10.358;2022-11-09T02:41:54;62.10;;;34.92;;
74523;SDS011;63074;44.696;10.358;2022-11-09T02:44:29;54.20;;;31.20;;
74523;SDS011;63074;44.696;10.358;2022-11-09T02:46:58;61.05;;;32.05;;
74523;SDS011;63074;44.696;10.358;2022-11-09T02:49:24;59.22;;;34.65;;
74523;SDS011;63074;44.696;10.358;2022-11-09T02:51:50;59.13;;;34.05;;
74523;SDS011;63074;44.696;10.358;2022-11-09T02:54:15;60.55;;;35.35;;
74523;SDS011;63074;44.696;10.358;2022-11-09T02:56:41;63.08;;;33.33;;
74523;SDS011;63074;44.696;10.358;2022-11-09T02:59:06;64.25;;;34.47;;
74523;SDS011;63074;44.696;10.358;2022-11-09T03:01:32;63.20;;;33.13;;
74523;SDS011;63074;44.696;10.358;2022-11-09T03:03:57;60.03;;;33.47;;
74523;SDS011;63074;44.696;10.358;2022-11-09T03:06:22;58.17;;;33.03;;
74523;SDS011;63074;44.696;10.358;2022-11-09T03:08:59;66.85;;;35.22;;
74523;SDS011;63074;44.696;10.358;2022-11-09T03:11:25;58.40;;;34.40;;
74523;SDS011;63074;44.696;10.358;2022-11-09T03:13:50;62.25;;;33.83;;
74523;SDS011;63074;44.696;10.358;2022-11-09T03:16:16;60.08;;;32.47;;
74523;SDS011;63074;44.696;10.358;2022-11-09T03:18:41;63.63;;;33.67;;
74523;SDS011;63074;44.696;10.358;2022-11-09T03:21:07;58.28;;;32.72;;
74523;SDS011;63074;44.696;10.358;2022-11-09T03:23:32;55.75;;;31.27;;
74523;SDS011;63074;44.696;10.358;2022-11-09T03:25:58;60.33;;;33.92;;
74523;SDS011;63074;44.696;10.358;2022-11-09T03:28:23;64.68;;;32.75;;
74523;SDS011;63074;44.696;10.358;2022-11-09T03:30:48;66.55;;;33.60;;
74523;SDS011;63074;44.696;10.358;2022-11-09T03:33:14;58.75;;;30.25;;
74523;SDS011;63074;44.696;10.358;2022-11-09T03:35:39;61.25;;;31.02;;
74523;SDS011;63074;44.696;10.358;2022-11-09T03:38:05;65.05;;;31.05;;
74523;SDS011;63074;44.696;10.358;2022-11-09T03:40:31;60.45;;;31.33;;
74523;SDS011;63074;44.696;10.358;2022-11-09T03:42:56;60.03;;;31.80;;
74523;SDS011;63074;44.696;10.358;2022-11-09T03:45:22;59.58;;;31.20;;
74523;SDS011;63074;44.696;10.358;2022-11-09T03:47:48;55.88;;;30.77;;
74523;SDS011;63074;44.696;10.358;2022-11-09T03:50:14;61.78;;;32.40;;
74523;SDS011;63074;44.696;10.358;2022-11-09T03:52:45;62.17;;;31.45;;
74523;SDS011;63074;44.696;10.358;2022-11-09T03:55:11;62.08;;;30.88;;
74523;SDS011;63074;44.696;10.358;2022-11-09T03:57:37;57.53;;;31.45;;
74523;SDS011;63074;44.696;10.358;2022-11-09T04:00:04;56.97;;;31.13;;
74523;SDS011;63074;44.696;10.358;2022-11-09T04:02:30;60.50;;;30.88;;
74523;SDS011;63074;44.696;10.358;2022-11-09T04:04:56;58.05;;;32.90;;
74523;SDS011;63074;44.696;10.358;2022-11-09T04:07:21;64.55;;;32.85;;
74523;SDS011;63074;44.696;10.358;2022-11-09T04:09:46;59.53;;;30.90;;
74523;SDS011;63074;44.696;10.358;2022-11-09T04:12:12;61.67;;;31.45;;
74523;SDS011;63074;44.696;10.358;2022-11-09T04:14:37;68.53;;;32.28;;
74523;SDS011;63074;44.696;10.358;2022-11-09T04:17:02;61.53;;;32.78;;
74523;SDS011;63074;44.696;10.358;2022-11-09T04:19:28;61.20;;;33.47;;
74523;SDS011;63074;44.696;10.358;2022-11-09T04:21:53;60.95;;;30.38;;
74523;SDS011;63074;44.696;10.358;2022-11-09T04:24:19;63.88;;;33.70;;
74523;SDS011;63074;44.696;10.358;2022-11-09T04:26:45;63.05;;;31.13;;
74523;SDS011;63074;44.696;10.358;2022-11-09T04:29:11;62.28;;;33.00;;
74523;SDS011;63074;44.696;10.358;2022-11-09T04:31:37;63.50;;;32.40;;
74523;SDS011;63074;44.696;10.358;2022-11-09T04:34:02;63.38;;;33.35;;
74523;SDS011;63074;44.696;10.358;2022-11-09T04:36:27;63.83;;;33.60;;
74523;SDS011;63074;44.696;10.358;2022-11-09T04:38:53;63.83;;;33.55;;
74523;SDS011;63074;44.696;10.358;2022-11-09T04:41:18;60.13;;;33.88;;
74523;SDS011;63074;44.696;10.358;2022-11-09T04:43:43;64.47;;;34.08;;
74523;SDS011;63074;44.696;10.358;2022-11-09T04:46:09;59.70;;;32.10;;
74523;SDS011;63074;44.696;10.358;2022-11-09T04:48:34;62.08;;;33.17;;
74523;SDS011;63074;44.696;10.358;2022-11-09T04:51:06;60.70;;;32.05;;
74523;SDS011;63074;44.696;10.358;2022-11-09T04:53:34;58.35;;;32.83;;
74523;SDS011;63074;44.696;10.358;2022-11-09T04:56:00;63.80;;;32.20;;
74523;SDS011;63074;44.696;10.358;2022-11-09T04:58:26;64.68;;;33.20;;
74523;SDS011;63074;44.696;10.358;2022-11-09T05:00:52;63.83;;;33.47;;
74523;SDS011;63074;44.696;10.358;2022-11-09T05:03:18;64.93;;;33.53;;
74523;SDS011;63074;44.696;10.358;2022-11-09T05:05:44;62.70;;;31.15;;
74523;SDS011;63074;44.696;10.358;2022-11-09T05:08:10;63.13;;;32.13;;
74523;SDS011;63074;44.696;10.358;2022-11-09T05:10:35;64.18;;;31.48;;
74523;SDS011;63074;44.696;10.358;2022-11-09T05:13:05;67.13;;;32.78;;
74523;SDS011;63074;44.696;10.358;2022-11-09T05:15:32;64.32;;;33.17;;
74523;SDS011;63074;44.696;10.358;2022-11-09T05:17:59;64.50;;;32.60;;
74523;SDS011;63074;44.696;10.358;2022-11-09T05:20:26;62.70;;;33.30;;
74523;SDS011;63074;44.696;10.358;2022-11-09T05:22:52;63.40;;;35.25;;
74523;SDS011;63074;44.696;10.358;2022-11-09T05:25:38;62.95;;;33.38;;
74523;SDS011;63074;44.696;10.358;2022-11-09T05:28:04;64.45;;;33.67;;
74523;SDS011;63074;44.696;10.358;2022-11-09T05:30:29;65.85;;;31.73;;
74523;SDS011;63074;44.696;10.358;2022-11-09T05:32:55;62.97;;;32.97;;
74523;SDS011;63074;44.696;10.358;2022-11-09T05:35:20;61.95;;;32.45;;
74523;SDS011;63074;44.696;10.358;2022-11-09T05:37:46;63.03;;;31.48;;
74523;SDS011;63074;44.696;10.358;2022-11-09T05:40:13;65.93;;;32.75;;
74523;SDS011;63074;44.696;10.358;2022-11-09T05:42:39;65.03;;;32.85;;
74523;SDS011;63074;44.696;10.358;2022-11-09T05:45:06;67.63;;;35.28;;
74523;SDS011;63074;44.696;10.358;2022-11-09T05:47:39;63.25;;;33.25;;
74523;SDS011;63074;44.696;10.358;2022-11-09T05:50:07;63.03;;;32.58;;
74523;SDS011;63074;44.696;10.358;2022-11-09T05:52:35;60.22;;;32.20;;
74523;SDS011;63074;44.696;10.358;2022-11-09T05:55:00;65.38;;;33.28;;
74523;SDS011;63074;44.696;10.358;2022-11-09T05:57:26;64.65;;;33.10;;
74523;SDS011;63074;44.696;10.358;2022-11-09T05:59:52;61.95;;;33.05;;
74523;SDS011;63074;44.696;10.358;2022-11-09T06:02:18;63.00;;;33.50;;
74523;SDS011;63074;44.696;10.358;2022-11-09T06:04:44;58.85;;;31.75;;
74523;SDS011;63074;44.696;10.358;2022-11-09T06:07:09;62.97;;;33.33;;
74523;SDS011;63074;44.696;10.358;2022-11-09T06:09:35;65.40;;;33.80;;
74523;SDS011;63074;44.696;10.358;2022-11-09T06:12:00;64.25;;;33.45;;
74523;SDS011;63074;44.696;10.358;2022-11-09T06:14:26;59.47;;;33.72;;
74523;SDS011;63074;44.696;10.358;2022-11-09T06:16:51;58.78;;;32.42;;
74523;SDS011;63074;44.696;10.358;2022-11-09T06:19:16;63.13;;;33.05;;
74523;SDS011;63074;44.696;10.358;2022-11-09T06:21:42;66.72;;;32.60;;
74523;SDS011;63074;44.696;10.358;2022-11-09T06:24:08;64.80;;;34.20;;
74523;SDS011;63074;44.696;10.358;2022-11-09T06:26:34;70.80;;;35.97;;
74523;SDS011;63074;44.696;10.358;2022-11-09T06:29:00;64.25;;;32.88;;
74523;SDS011;63074;44.696;10.358;2022-11-09T06:31:25;69.78;;;35.75;;
74523;SDS011;63074;44.696;10.358;2022-11-09T06:33:50;65.43;;;34.05;;
74523;SDS011;63074;44.696;10.358;2022-11-09T06:36:16;67.32;;;36.25;;
74523;SDS011;63074;44.696;10.358;2022-11-09T06:38:41;66.90;;;35.88;;
74523;SDS011;63074;44.696;10.358;2022-11-09T06:41:08;68.93;;;36.47;;
74523;SDS011;63074;44.696;10.358;2022-11-09T06:43:34;66.38;;;36.65;;
74523;SDS011;63074;44.696;10.358;2022-11-09T06:46:03;73.55;;;37.92;;
74523;SDS011;63074;44.696;10.358;2022-11-09T06:48:29;65.85;;;36.47;;
74523;SDS011;63074;44.696;10.358;2022-11-09T06:50:58;74.13;;;38.55;;
74523;SDS011;63074;44.696;10.358;2022-11-09T06:53:24;67.35;;;37.92;;
74523;SDS011;63074;44.696;10.358;2022-11-09T06:55:51;67.22;;;37.08;;
74523;SDS011;63074;44.696;10.358;2022-11-09T06:58:17;67.68;;;38.05;;
74523;SDS011;63074;44.696;10.358;2022-11-09T07:00:43;69.80;;;39.00;;
74523;SDS011;63074;44.696;10.358;2022-11-09T07:03:13;70.70;;;40.53;;
74523;SDS011;63074;44.696;10.358;2022-11-09T07:05:40;79.10;;;39.90;;
74523;SDS011;63074;44.696;10.358;2022-11-09T07:08:05;70.38;;;38.22;;
74523;SDS011;63074;44.696;10.358;2022-11-09T07:10:31;73.70;;;37.65;;
74523;SDS011;63074;44.696;10.358;2022-11-09T07:12:57;68.75;;;38.78;;
74523;SDS011;63074;44.696;10.358;2022-11-09T07:15:22;71.82;;;39.63;;
74523;SDS011;63074;44.696;10.358;2022-11-09T07:17:48;74.30;;;39.97;;
74523;SDS011;63074;44.696;10.358;2022-11-09T07:20:13;72.55;;;40.67;;
74523;SDS011;63074;44.696;10.358;2022-11-09T07:22:39;70.78;;;39.95;;
74523;SDS011;63074;44.696;10.358;2022-11-09T07:25:06;69.43;;;41.33;;
74523;SDS011;63074;44.696;10.358;2022-11-09T07:27:33;75.38;;;41.15;;
74523;SDS011;63074;44.696;10.358;2022-11-09T07:29:59;79.03;;;41.42;;
74523;SDS011;63074;44.696;10.358;2022-11-09T07:32:25;72.22;;;39.17;;
74523;SDS011;63074;44.696;10.358;2022-11-09T07:34:51;73.55;;;40.10;;
74523;SDS011;63074;44.696;10.358;2022-11-09T07:37:16;73.28;;;41.65;;
74523;SDS011;63074;44.696;10.358;2022-11-09T07:39:41;74.38;;;41.35;;
74523;SDS011;63074;44.696;10.358;2022-11-09T07:42:07;70.57;;;39.30;;
74523;SDS011;63074;44.696;10.358;2022-11-09T07:44:32;72.45;;;40.47;;
74523;SDS011;63074;44.696;10.358;2022-11-09T07:46:58;68.72;;;40.33;;
74523;SDS011;63074;44.696;10.358;2022-11-09T07:49:23;72.75;;;40.65;;
74523;SDS011;63074;44.696;10.358;2022-11-09T07:51:48;74.43;;;39.42;;
74523;SDS011;63074;44.696;10.358;2022-11-09T07:54:14;71.95;;;40.60;;
74523;SDS011;63074;44.696;10.358;2022-11-09T07:56:39;75.25;;;41.10;;
74523;SDS011;63074;44.696;10.358;2022-11-09T07:59:04;78.32;;;42.33;;
74523;SDS011;63074;44.696;10.358;2022-11-09T08:01:30;75.85;;;42.42;;
74523;SDS011;63074;44.696;10.358;2022-11-09T08:03:55;76.10;;;41.58;;
74523;SDS011;63074;44.696;10.358;2022-11-09T08:06:21;66.88;;;39.88;;
74523;SDS011;63074;44.696;10.358;2022-11-09T08:08:48;68.55;;;40.40;;
74523;SDS011;63074;44.696;10.358;2022-11-09T08:11:14;74.95;;;41.85;;
74523;SDS011;63074;44.696;10.358;2022-11-09T08:13:39;72.07;;;40.72;;
74523;SDS011;63074;44.696;10.358;2022-11-09T08:16:05;74.85;;;40.35;;
74523;SDS011;63074;44.696;10.358;2022-11-09T08:18:31;72.82;;;37.58;;
74523;SDS011;63074;44.696;10.358;2022-11-09T08:20:59;70.60;;;38.65;;
74523;SDS011;63074;44.696;10.358;2022-11-09T08:23:26;65.97;;;39.55;;
74523;SDS011;63074;44.696;10.358;2022-11-09T08:25:51;75.97;;;39.00;;
74523;SDS011;63074;44.696;10.358;2022-11-09T08:28:17;66.47;;;38.45;;
74523;SDS011;63074;44.696;10.358;2022-11-09T08:30:43;68.28;;;38.80;;
74523;SDS011;63074;44.696;10.358;2022-11-09T08:33:09;64.05;;;38.90;;
74523;SDS011;63074;44.696;10.358;2022-11-09T08:35:35;60.83;;;37.55;;
74523;SDS011;63074;44.696;10.358;2022-11-09T08:38:01;68.93;;;38.40;;
74523;SDS011;63074;44.696;10.358;2022-11-09T08:40:29;65.30;;;37.72;;
74523;SDS011;63074;44.696;10.358;2022-11-09T08:42:59;65.60;;;38.42;;
74523;SDS011;63074;44.696;10.358;2022-11-09T08:45:26;65.90;;;35.60;;
74523;SDS011;63074;44.696;10.358;2022-11-09T08:47:55;60.53;;;37.20;;
74523;SDS011;63074;44.696;10.358;2022-11-09T08:50:22;61.08;;;36.42;;
74523;SDS011;63074;44.696;10.358;2022-11-09T08:52:47;57.25;;;35.15;;
74523;SDS011;63074;44.696;10.358;2022-11-09T08:55:12;58.00;;;36.10;;
74523;SDS011;63074;44.696;10.358;2022-11-09T08:57:38;61.78;;;37.95;;
74523;SDS011;63074;44.696;10.358;2022-11-09T09:00:03;61.08;;;37.58;;
74523;SDS011;63074;44.696;10.358;2022-11-09T09:02:30;66.75;;;37.60;;
74523;SDS011;63074;44.696;10.358;2022-11-09T09:04:55;61.70;;;37.75;;
74523;SDS011;63074;44.696;10.358;2022-11-09T09:07:21;62.03;;;39.22;;
74523;SDS011;63074;44.696;10.358;2022-11-09T09:09:46;61.88;;;37.78;;
74523;SDS011;63074;44.696;10.358;2022-11-09T09:12:11;64.53;;;37.42;;
74523;SDS011;63074;44.696;10.358;2022-11-09T09:14:37;60.97;;;37.22;;
74523;SDS011;63074;44.696;10.358;2022-11-09T09:17:02;64.63;;;39.92;;
74523;SDS011;63074;44.696;10.358;2022-11-09T09:19:28;63.40;;;38.75;;
74523;SDS011;63074;44.696;10.358;2022-11-09T09:21:53;62.53;;;38.78;;
74523;SDS011;63074;44.696;10.358;2022-11-09T09:24:19;61.42;;;38.30;;
74523;SDS011;63074;44.696;10.358;2022-11-09T09:26:45;64.90;;;39.83;;
74523;SDS011;63074;44.696;10.358;2022-11-09T09:29:11;71.20;;;41.53;;
74523;SDS011;63074;44.696;10.358;2022-11-09T09:31:37;67.03;;;40.08;;
74523;SDS011;63074;44.696;10.358;2022-11-09T09:34:03;68.57;;;41.35;;
74523;SDS011;63074;44.696;10.358;2022-11-09T09:36:29;73.38;;;42.58;;
74523;SDS011;63074;44.696;10.358;2022-11-09T09:38:54;69.55;;;41.05;;
74523;SDS011;63074;44.696;10.358;2022-11-09T09:43:58;72.00;;;42.13;;
74523;SDS011;63074;44.696;10.358;2022-11-09T09:46:34;62.65;;;38.95;;
74523;SDS011;63074;44.696;10.358;2022-11-09T09:49:05;69.53;;;39.10;;
74523;SDS011;63074;44.696;10.358;2022-11-09T09:51:44;73.13;;;42.58;;
74523;SDS011;63074;44.696;10.358;2022-11-09T09:54:18;77.97;;;44.47;;
74523;SDS011;63074;44.696;10.358;2022-11-09T09:56:49;79.70;;;43.90;;
74523;SDS011;63074;44.696;10.358;2022-11-09T09:59:19;77.15;;;44.38;;
74523;SDS011;63074;44.696;10.358;2022-11-09T10:02:01;70.65;;;40.72;;
74523;SDS011;63074;44.696;10.358;2022-11-09T10:04:31;74.53;;;43.67;;
74523;SDS011;63074;44.696;10.358;2022-11-09T10:09:58;74.53;;;43.30;;
74523;SDS011;63074;44.696;10.358;2022-11-09T10:15:42;72.90;;;42.28;;
74523;SDS011;63074;44.696;10.358;2022-11-09T10:18:40;69.95;;;42.05;;
74523;SDS011;63074;44.696;10.358;2022-11-09T10:21:17;68.30;;;42.65;;
74523;SDS011;63074;44.696;10.358;2022-11-09T10:24:25;68.72;;;42.00;;
74523;SDS011;63074;44.696;10.358;2022-11-09T10:26:51;72.93;;;41.38;;
74523;SDS011;63074;44.696;10.358;2022-11-09T10:31:49;74.20;;;43.22;;
74523;SDS011;63074;44.696;10.358;2022-11-09T10:34:22;71.88;;;42.70;;
74523;SDS011;63074;44.696;10.358;2022-11-09T10:37:08;72.95;;;43.25;;
74523;SDS011;63074;44.696;10.358;2022-11-09T10:39:41;74.47;;;42.95;;
74523;SDS011;63074;44.696;10.358;2022-11-09T10:42:13;74.63;;;43.85;;
74523;SDS011;63074;44.696;10.358;2022-11-09T10:44:38;74.32;;;41.05;;
74523;SDS011;63074;44.696;10.358;2022-11-09T10:47:11;77.13;;;43.10;;
74523;SDS011;63074;44.696;10.358;2022-11-09T10:52:08;72.63;;;42.85;;
74523;SDS011;63074;44.696;10.358;2022-11-09T11:00:28;71.68;;;43.83;;
74523;SDS011;63074;44.696;10.358;2022-11-09T11:02:54;75.45;;;43.65;;
74523;SDS011;63074;44.696;10.358;2022-11-09T11:05:21;74.20;;;44.17;;
74523;SDS011;63074;44.696;10.358;2022-11-09T11:07:49;73.07;;;45.08;;
74523;SDS011;63074;44.696;10.358;2022-11-09T11:12:44;70.40;;;42.38;;
74523;SDS011;63074;44.696;10.358;2022-11-09T11:15:22;74.95;;;43.28;;
74523;SDS011;63074;44.696;10.358;2022-11-09T11:17:49;72.13;;;43.80;;
74523;SDS011;63074;44.696;10.358;2022-11-09T11:23:13;70.07;;;41.08;;
74523;SDS011;63074;44.696;10.358;2022-11-09T11:26:31;69.65;;;42.95;;
74523;SDS011;63074;44.696;10.358;2022-11-09T11:28:39;70.82;;;42.30;;
74523;SDS011;63074;44.696;10.358;2022-11-09T11:31:14;70.28;;;42.85;;
74523;SDS011;63074;44.696;10.358;2022-11-09T11:33:41;73.85;;;43.95;;
74523;SDS011;63074;44.696;10.358;2022-11-09T11:36:15;73.55;;;42.35;;
74523;SDS011;63074;44.696;10.358;2022-11-09T11:39:01;68.45;;;42.20;;
74523;SDS011;63074;44.696;10.358;2022-11-09T11:44:57;66.70;;;40.40;;
74523;SDS011;63074;44.696;10.358;2022-11-09T11:55:25;63.45;;;40.33;;
74523;SDS011;63074;44.696;10.358;2022-11-09T12:00:40;67.75;;;39.78;;
74523;SDS011;63074;44.696;10.358;2022-11-09T12:06:22;67.43;;;40.78;;
74523;SDS011;63074;44.696;10.358;2022-11-09T12:25:52;73.47;;;41.75;;
74523;SDS011;63074;44.696;10.358;2022-11-09T12:34:25;71.13;;;42.20;;
74523;SDS011;63074;44.696;10.358;2022-11-09T12:37:03;70.05;;;42.78;;
74523;SDS011;63074;44.696;10.358;2022-11-09T12:39:37;75.00;;;43.33;;
74523;SDS011;63074;44.696;10.358;2022-11-09T12:42:16;77.47;;;43.67;;
74523;SDS011;63074;44.696;10.358;2022-11-09T12:44:49;75.38;;;43.92;;
74523;SDS011;63074;44.696;10.358;2022-11-09T12:47:23;80.00;;;45.42;;
74523;SDS011;63074;44.696;10.358;2022-11-09T12:49:54;80.00;;;45.88;;
74523;SDS011;63074;44.696;10.358;2022-11-09T12:52:20;79.90;;;44.15;;
74523;SDS011;63074;44.696;10.358;2022-11-09T12:54:51;76.35;;;44.65;;
74523;SDS011;63074;44.696;10.358;2022-11-09T12:57:22;78.50;;;44.92;;
74523;SDS011;63074;44.696;10.358;2022-11-09T12:59:50;79.13;;;45.80;;
74523;SDS011;63074;44.696;10.358;2022-11-09T13:02:23;73.97;;;42.40;;
74523;SDS011;63074;44.696;10.358;2022-11-09T13:04:54;72.55;;;42.65;;
74523;SDS011;63074;44.696;10.358;2022-11-09T13:07:31;74.78;;;44.50;;
74523;SDS011;63074;44.696;10.358;2022-11-09T13:15:37;80.75;;;44.72;;
74523;SDS011;63074;44.696;10.358;2022-11-09T13:18:05;75.88;;;42.65;;
74523;SDS011;63074;44.696;10.358;2022-11-09T13:20:49;67.20;;;41.70;;
74523;SDS011;63074;44.696;10.358;2022-11-09T13:25:53;71.45;;;41.20;;
74523;SDS011;63074;44.696;10.358;2022-11-09T13:30:57;74.03;;;44.22;;
74523;SDS011;63074;44.696;10.358;2022-11-09T13:33:27;70.38;;;44.13;;
74523;SDS011;63074;44.696;10.358;2022-11-09T13:38:19;76.68;;;45.47;;
74523;SDS011;63074;44.696;10.358;2022-11-09T13:43:22;77.80;;;43.65;;
74523;SDS011;63074;44.696;10.358;2022-11-09T13:45:54;78.38;;;46.97;;
74523;SDS011;63074;44.696;10.358;2022-11-09T13:51:01;76.72;;;46.97;;
74523;SDS011;63074;44.696;10.358;2022-11-09T13:53:30;82.40;;;47.53;;
74523;SDS011;63074;44.696;10.358;2022-11-09T13:56:38;80.32;;;46.55;;
74523;SDS011;63074;44.696;10.358;2022-11-09T13:59:10;82.88;;;45.88;;
74523;SDS011;63074;44.696;10.358;2022-11-09T14:01:53;83.43;;;47.70;;
74523;SDS011;63074;44.696;10.358;2022-11-09T14:14:52;83.63;;;48.38;;
74523;SDS011;63074;44.696;10.358;2022-11-09T14:17:58;82.10;;;46.85;;
74523;SDS011;63074;44.696;10.358;2022-11-09T14:21:00;83.65;;;48.35;;
74523;SDS011;63074;44.696;10.358;2022-11-09T14:23:32;85.65;;;49.85;;
74523;SDS011;63074;44.696;10.358;2022-11-09T14:26:05;87.70;;;49.72;;
74523;SDS011;63074;44.696;10.358;2022-11-09T14:28:39;83.75;;;47.22;;
74523;SDS011;63074;44.696;10.358;2022-11-09T14:31:05;80.88;;;45.38;;
74523;SDS011;63074;44.696;10.358;2022-11-09T14:33:31;82.25;;;46.20;;
74523;SDS011;63074;44.696;10.358;2022-11-09T14:35:59;87.38;;;47.38;;
74523;SDS011;63074;44.696;10.358;2022-11-09T14:38:34;84.63;;;45.80;;
74523;SDS011;63074;44.696;10.358;2022-11-09T14:41:28;85.65;;;46.60;;
74523;SDS011;63074;44.696;10.358;2022-11-09T14:43:54;81.25;;;46.13;;
74523;SDS011;63074;44.696;10.358;2022-11-09T14:46:22;82.18;;;45.63;;
74523;SDS011;63074;44.696;10.358;2022-11-09T14:48:57;80.03;;;45.92;;
74523;SDS011;63074;44.696;10.358;2022-11-09T14:51:33;80.90;;;45.30;;
74523;SDS011;63074;44.696;10.358;2022-11-09T14:54:01;84.65;;;46.13;;
74523;SDS011;63074;44.696;10.358;2022-11-09T14:56:30;83.95;;;47.58;;
74523;SDS011;63074;44.696;10.358;2022-11-09T14:58:57;77.97;;;45.85;;
74523;SDS011;63074;44.696;10.358;2022-11-09T15:01:26;81.50;;;42.30;;
74523;SDS011;63074;44.696;10.358;2022-11-09T15:09:19;79.68;;;43.53;;
74523;SDS011;63074;44.696;10.358;2022-11-09T15:11:46;81.43;;;45.90;;
74523;SDS011;63074;44.696;10.358;2022-11-09T15:16:44;87.85;;;45.83;;
74523;SDS011;63074;44.696;10.358;2022-11-09T15:21:57;89.07;;;47.28;;
74523;SDS011;63074;44.696;10.358;2022-11-09T15:24:24;80.35;;;45.95;;
74523;SDS011;63074;44.696;10.358;2022-11-09T15:26:51;84.60;;;45.40;;
74523;SDS011;63074;44.696;10.358;2022-11-09T15:34:38;68.50;;;38.35;;
74523;SDS011;63074;44.696;10.358;2022-11-09T15:39:53;70.10;;;37.35;;
74523;SDS011;63074;44.696;10.358;2022-11-09T15:42:19;62.67;;;36.28;;
74523;SDS011;63074;44.696;10.358;2022-11-09T15:44:49;62.00;;;35.58;;
74523;SDS011;63074;44.696;10.358;2022-11-09T15:47:29;74.05;;;36.88;;
74523;SDS011;63074;44.696;10.358;2022-11-09T15:50:00;62.47;;;34.58;;
74523;SDS011;63074;44.696;10.358;2022-11-09T15:52:38;50.92;;;31.40;;
74523;SDS011;63074;44.696;10.358;2022-11-09T15:55:04;57.58;;;34.55;;
74523;SDS011;63074;44.696;10.358;2022-11-09T15:57:30;55.80;;;32.75;;
74523;SDS011;63074;44.696;10.358;2022-11-09T15:59:55;53.42;;;30.65;;
74523;SDS011;63074;44.696;10.358;2022-11-09T16:02:21;60.80;;;32.38;;
74523;SDS011;63074;44.696;10.358;2022-11-09T16:04:46;53.42;;;31.48;;
74523;SDS011;63074;44.696;10.358;2022-11-09T16:07:12;48.83;;;29.63;;
74523;SDS011;63074;44.696;10.358;2022-11-09T16:09:39;49.42;;;29.02;;
74523;SDS011;63074;44.696;10.358;2022-11-09T16:12:05;50.15;;;31.00;;
74523;SDS011;63074;44.696;10.358;2022-11-09T16:14:31;51.17;;;29.33;;
74523;SDS011;63074;44.696;10.358;2022-11-09T16:16:57;50.83;;;30.50;;
74523;SDS011;63074;44.696;10.358;2022-11-09T16:19:23;52.72;;;29.70;;